sensor_id;sensor_type;location;lat;lon;timestamp;pressure;altitude;pressure_sealevel;temperature;humidity
7662;BME280;30314;48.184;11.510;2023-02-23T00:00:26;95567.94;;;6.14;100.00
7662;BME280;30314;48.184;11.510;2023-02-23T00:02:59;95577.34;;;6.20;100.00
7662;BME280;30314;48.184;11.510;2023-02-23T00:05:28;95575.28;;;6.22;100.00
7662;BME280;30314;48.184;11.510;2023-02-23T00:07:56;95570.28;;;6.20;100.00
7662;BME280;30314;48.184;11.510;2023-02-23T00:10:23;95565.56;;;6.17;100.00
7662;BME280;30314;48.184;11.510;2023-02-23T00:12:56;95570.28;;;6.20;100.00
7662;BME280;30314;48.184;11.510;2023-02-23T00:15:25;95552.47;;;6.07;100.00
7662;BME280;30314;48.184;11.510;2023-02-23T00:17:53;95568.44;;;6.16;100.00
7662;BME280;30314;48.184;11.510;2023-02-23T00:20:24;95560.59;;;6.16;100.00
7662;BME280;30314;48.184;11.510;2023-02-23T00:22:53;95566.88;;;6.20;100.00
7662;BME280;30314;48.184;11.510;2023-02-23T00:25:22;95582.34;;;6.27;100.00
7662;BME280;30314;48.184;11.510;2023-02-23T00:27:50;95586.28;;;6.29;100.00
7662;BME280;30314;48.184;11.510;2023-02-23T00:30:18;95569.75;;;6.24;100.00
7662;BME280;30314;48.184;11.510;2023-02-23T00:32:49;95575.25;;;6.27;100.00
7662;BME280;30314;48.184;11.510;2023-02-23T00:35:17;95581.03;;;6.29;100.00
7662;BME280;30314;48.184;11.510;2023-02-23T00:37:47;95580.22;;;6.39;100.00
7662;BME280;30314;48.184;11.510;2023-02-23T00:40:16;95582.31;;;6.37;100.00
7662;BME280;30314;48.184;11.510;2023-02-23T00:42:44;95571.34;;;6.30;100.00
7662;BME280;30314;48.184;11.510;2023-02-23T00:45:12;95574.44;;;6.37;100.00
7662;BME280;30314;48.184;11.510;2023-02-23T00:47:43;95576.56;;;6.35;100.00
7662;BME280;30314;48.184;11.510;2023-02-23T00:50:14;95590.97;;;6.53;100.00
7662;BME280;30314;48.184;11.510;2023-02-23T00:52:41;95565.28;;;6.40;100.00
7662;BME280;30314;48.184;11.510;2023-02-23T00:55:13;95587.03;;;6.51;100.00
7662;BME280;30314;48.184;11.510;2023-02-23T00:57:40;95557.69;;;6.28;100.00
7662;BME280;30314;48.184;11.510;2023-02-23T01:00:09;95576.53;;;6.40;100.00
7662;BME280;30314;48.184;11.510;2023-02-23T01:02:53;95576.81;;;6.44;100.00
7662;BME280;30314;48.184;11.510;2023-02-23T01:05:20;95574.97;;;6.39;100.00
7662;BME280;30314;48.184;11.510;2023-02-23T01:07:47;95577.88;;;6.38;100.00
7662;BME280;30314;48.184;11.510;2023-02-23T01:10:14;95577.63;;;6.34;100.00
7662;BME280;30314;48.184;11.510;2023-02-23T01:12:49;95587.03;;;6.45;100.00
7662;BME280;30314;48.184;11.510;2023-02-23T01:15:17;95584.94;;;6.47;100.00
7662;BME280;30314;48.184;11.510;2023-02-23T01:17:44;95591.22;;;6.52;100.00
7662;BME280;30314;48.184;11.510;2023-02-23T01:20:14;95561.34;;;6.32;100.00
7662;BME280;30314;48.184;11.510;2023-02-23T01:22:47;95576.25;;;6.47;100.00
7662;BME280;30314;48.184;11.510;2023-02-23T01:25:15;95584.94;;;6.47;100.00
7662;BME280;30314;48.184;11.510;2023-02-23T01:27:42;95577.59;;;6.44;100.00
7662;BME280;30314;48.184;11.510;2023-02-23T01:30:13;95583.09;;;6.48;100.00
7662;BME280;30314;48.184;11.510;2023-02-23T01:32:42;95560.06;;;6.34;100.00
7662;BME280;30314;48.184;11.510;2023-02-23T01:35:09;95572.88;;;6.46;100.00
7662;BME280;30314;48.184;11.510;2023-02-23T01:37:39;95576.53;;;6.56;100.00
7662;BME280;30314;48.184;11.510;2023-02-23T01:40:12;95547.72;;;6.35;100.00
7662;BME280;30314;48.184;11.510;2023-02-23T01:42:44;95579.94;;;6.51;100.00
7662;BME280;30314;48.184;11.510;2023-02-23T01:45:33;95579.38;;;6.59;100.00
7662;BME280;30314;48.184;11.510;2023-02-23T01:48:05;95566.81;;;6.46;100.00
7662;BME280;30314;48.184;11.510;2023-02-23T01:50:40;95559.78;;;6.36;100.00
7662;BME280;30314;48.184;11.510;2023-02-23T01:53:07;95570.78;;;6.43;100.00
7662;BME280;30314;48.184;11.510;2023-02-23T01:55:34;95576.03;;;6.43;100.00
7662;BME280;30314;48.184;11.510;2023-02-23T01:58:08;95560.00;;;6.50;100.00
7662;BME280;30314;48.184;11.510;2023-02-23T02:00:48;95577.03;;;6.58;100.00
7662;BME280;30314;48.184;11.510;2023-02-23T02:03:38;95574.97;;;6.55;100.00
7662;BME280;30314;48.184;11.510;2023-02-23T02:06:07;95578.59;;;6.54;100.00
7662;BME280;30314;48.184;11.510;2023-02-23T02:08:36;95557.16;;;6.41;100.00
7662;BME280;30314;48.184;11.510;2023-02-23T02:11:14;95580.72;;;6.57;100.00
7662;BME280;30314;48.184;11.510;2023-02-23T02:14:03;95580.72;;;6.52;100.00
7662;BME280;30314;48.184;11.510;2023-02-23T02:16:57;95559.22;;;6.49;100.00
7662;BME280;30314;48.184;11.510;2023-02-23T02:19:58;95554.75;;;6.50;100.00
7662;BME280;30314;48.184;11.510;2023-02-23T02:23:01;95541.38;;;6.46;100.00
7662;BME280;30314;48.184;11.510;2023-02-23T02:25:35;95551.34;;;6.55;100.00
7662;BME280;30314;48.184;11.510;2023-02-23T02:36:26;95528.31;;;6.31;100.00
7662;BME280;30314;48.184;11.510;2023-02-23T02:42:15;95545.59;;;6.37;100.00
7662;BME280;30314;48.184;11.510;2023-02-23T02:50:16;95550.84;;;6.27;100.00
7662;BME280;30314;48.184;11.510;2023-02-23T02:52:58;95534.66;;;6.14;100.00
7662;BME280;30314;48.184;11.510;2023-02-23T02:55:29;95534.38;;;6.11;100.00
7662;BME280;30314;48.184;11.510;2023-02-23T02:58:05;95524.16;;;6.04;100.00
7662;BME280;30314;48.184;11.510;2023-02-23T03:00:37;95528.88;;;5.97;100.00
7662;BME280;30314;48.184;11.510;2023-02-23T03:06:18;95546.19;;;6.08;100.00
7662;BME280;30314;48.184;11.510;2023-02-23T03:09:19;95551.66;;;6.06;100.00
7662;BME280;30314;48.184;11.510;2023-02-23T03:12:32;95539.66;;;5.95;100.00
7662;BME280;30314;48.184;11.510;2023-02-23T03:15:35;95548.81;;;5.98;100.00
7662;BME280;30314;48.184;11.510;2023-02-23T03:21:27;95551.69;;;5.96;100.00
7662;BME280;30314;48.184;11.510;2023-02-23T03:24:27;95561.38;;;5.96;100.00
7662;BME280;30314;48.184;11.510;2023-02-23T03:34:09;95532.31;;;5.87;100.00
7662;BME280;30314;48.184;11.510;2023-02-23T03:37:09;95539.38;;;5.81;100.00
7662;BME280;30314;48.184;11.510;2023-02-23T03:40:09;95550.41;;;5.88;100.00
7662;BME280;30314;48.184;11.510;2023-02-23T03:42:58;95548.53;;;5.78;100.00
7662;BME280;30314;48.184;11.510;2023-02-23T03:45:47;95529.69;;;5.56;100.00
7662;BME280;30314;48.184;11.510;2023-02-23T03:48:34;95533.84;;;5.52;100.00
7662;BME280;30314;48.184;11.510;2023-02-23T03:51:21;95557.19;;;5.58;100.00
7662;BME280;30314;48.184;11.510;2023-02-23T03:54:15;95561.66;;;5.58;100.00
7662;BME280;30314;48.184;11.510;2023-02-23T03:57:04;95549.31;;;5.53;100.00
7662;BME280;30314;48.184;11.510;2023-02-23T03:59:56;95554.00;;;5.46;100.00
7662;BME280;30314;48.184;11.510;2023-02-23T04:02:44;95562.91;;;5.45;100.00
7662;BME280;30314;48.184;11.510;2023-02-23T04:05:34;95524.59;;;5.07;100.00
7662;BME280;30314;48.184;11.510;2023-02-23T04:08:24;95538.75;;;5.06;100.00
7662;BME280;30314;48.184;11.510;2023-02-23T04:11:30;95567.59;;;5.22;100.00
7662;BME280;30314;48.184;11.510;2023-02-23T04:14:25;95563.38;;;5.21;100.00
7662;BME280;30314;48.184;11.510;2023-02-23T04:16:55;95522.72;;;4.87;100.00
7662;BME280;30314;48.184;11.510;2023-02-23T04:19:26;95556.31;;;5.11;100.00
7662;BME280;30314;48.184;11.510;2023-02-23T04:21:56;95546.31;;;4.98;100.00
7662;BME280;30314;48.184;11.510;2023-02-23T04:24:23;95467.63;;;4.41;100.00
7662;BME280;30314;48.184;11.510;2023-02-23T04:26:49;95557.59;;;5.03;100.00
7662;BME280;30314;48.184;11.510;2023-02-23T04:29:16;95567.03;;;5.10;100.00
7662;BME280;30314;48.184;11.510;2023-02-23T04:31:42;95533.44;;;4.81;100.00
7662;BME280;30314;48.184;11.510;2023-02-23T04:34:09;95501.16;;;4.49;100.00
7662;BME280;30314;48.184;11.510;2023-02-23T04:36:36;95567.47;;;4.86;100.00
7662;BME280;30314;48.184;11.510;2023-02-23T04:39:02;95571.16;;;4.85;100.00
7662;BME280;30314;48.184;11.510;2023-02-23T04:41:29;95523.47;;;4.72;100.00
7662;BME280;30314;48.184;11.510;2023-02-23T04:43:55;95532.66;;;4.80;100.00
7662;BME280;30314;48.184;11.510;2023-02-23T04:46:22;95528.66;;;4.62;100.00
7662;BME280;30314;48.184;11.510;2023-02-23T04:48:49;95473.28;;;4.17;100.00
7662;BME280;30314;48.184;11.510;2023-02-23T04:51:15;95539.81;;;4.47;100.00
7662;BME280;30314;48.184;11.510;2023-02-23T04:53:42;95557.44;;;4.62;100.00
7662;BME280;30314;48.184;11.510;2023-02-23T04:56:09;95547.94;;;4.50;100.00
7662;BME280;30314;48.184;11.510;2023-02-23T04:58:37;95552.41;;;4.50;100.00
7662;BME280;30314;48.184;11.510;2023-02-23T05:01:05;95536.66;;;4.40;100.00
7662;BME280;30314;48.184;11.510;2023-02-23T05:03:31;95564.66;;;4.44;100.00
7662;BME280;30314;48.184;11.510;2023-02-23T05:05:58;95571.19;;;4.42;100.00
7662;BME280;30314;48.184;11.510;2023-02-23T05:08:24;95570.97;;;4.54;100.00
7662;BME280;30314;48.184;11.510;2023-02-23T05:10:51;95578.81;;;4.48;100.00
7662;BME280;30314;48.184;11.510;2023-02-23T05:13:17;95565.66;;;4.33;100.00
7662;BME280;30314;48.184;11.510;2023-02-23T05:15:44;95558.78;;;4.21;100.00
7662;BME280;30314;48.184;11.510;2023-02-23T05:18:10;95569.00;;;4.28;100.00
7662;BME280;30314;48.184;11.510;2023-02-23T05:20:37;95537.50;;;4.07;100.00
7662;BME280;30314;48.184;11.510;2023-02-23T05:23:03;95506.31;;;3.90;100.00
7662;BME280;30314;48.184;11.510;2023-02-23T05:25:30;95507.84;;;3.86;100.00
7662;BME280;30314;48.184;11.510;2023-02-23T05:27:56;95536.28;;;4.20;100.00
7662;BME280;30314;48.184;11.510;2023-02-23T05:30:23;95537.34;;;4.25;100.00
7662;BME280;30314;48.184;11.510;2023-02-23T05:32:49;95515.31;;;4.10;100.00
7662;BME280;30314;48.184;11.510;2023-02-23T05:35:16;95558.84;;;4.32;100.00
7662;BME280;30314;48.184;11.510;2023-02-23T05:37:43;95595.56;;;4.53;100.00
7662;BME280;30314;48.184;11.510;2023-02-23T05:40:10;95523.47;;;4.19;100.00
7662;BME280;30314;48.184;11.510;2023-02-23T05:42:36;95538.44;;;4.29;100.00
7662;BME280;30314;48.184;11.510;2023-02-23T05:45:04;95535.28;;;4.27;100.00
7662;BME280;30314;48.184;11.510;2023-02-23T05:47:31;95577.78;;;4.55;100.00
7662;BME280;30314;48.184;11.510;2023-02-23T05:49:58;95527.94;;;4.23;100.00
7662;BME280;30314;48.184;11.510;2023-02-23T05:52:25;95577.06;;;4.64;100.00
7662;BME280;30314;48.184;11.510;2023-02-23T05:54:51;95494.16;;;4.12;100.00
7662;BME280;30314;48.184;11.510;2023-02-23T05:57:18;95483.66;;;4.06;100.00
7662;BME280;30314;48.184;11.510;2023-02-23T05:59:44;95560.56;;;4.64;100.00
7662;BME280;30314;48.184;11.510;2023-02-23T06:02:11;95587.38;;;4.87;100.00
7662;BME280;30314;48.184;11.510;2023-02-23T06:04:40;95552.19;;;4.62;100.00
7662;BME280;30314;48.184;11.510;2023-02-23T06:07:07;95569.56;;;4.84;100.00
7662;BME280;30314;48.184;11.510;2023-02-23T06:09:33;95594.75;;;4.95;100.00
7662;BME280;30314;48.184;11.510;2023-02-23T06:12:00;95563.50;;;4.73;100.00
7662;BME280;30314;48.184;11.510;2023-02-23T06:14:27;95606.56;;;5.03;100.00
7662;BME280;30314;48.184;11.510;2023-02-23T06:16:53;95507.63;;;4.36;100.00
7662;BME280;30314;48.184;11.510;2023-02-23T06:19:20;95571.66;;;4.82;100.00
7662;BME280;30314;48.184;11.510;2023-02-23T06:21:46;95609.41;;;5.06;100.00
7662;BME280;30314;48.184;11.510;2023-02-23T06:24:13;95581.66;;;4.95;100.00
7662;BME280;30314;48.184;11.510;2023-02-23T06:26:39;95602.13;;;5.14;100.00
7662;BME280;30314;48.184;11.510;2023-02-23T06:29:10;95602.13;;;5.14;100.00
7662;BME280;30314;48.184;11.510;2023-02-23T06:31:37;95597.66;;;5.09;100.00
7662;BME280;30314;48.184;11.510;2023-02-23T06:34:04;95609.50;;;5.22;100.00
7662;BME280;30314;48.184;11.510;2023-02-23T06:36:31;95598.50;;;5.25;100.00
7662;BME280;30314;48.184;11.510;2023-02-23T06:38:58;95616.34;;;5.39;100.00
7662;BME280;30314;48.184;11.510;2023-02-23T06:41:25;95573.34;;;5.14;100.00
7662;BME280;30314;48.184;11.510;2023-02-23T06:43:55;95614.53;;;5.44;100.00
7662;BME280;30314;48.184;11.510;2023-02-23T06:46:22;95615.59;;;5.48;100.00
7662;BME280;30314;48.184;11.510;2023-02-23T06:48:53;95604.56;;;5.41;100.00
7662;BME280;30314;48.184;11.510;2023-02-23T06:51:21;95606.91;;;5.43;100.00
7662;BME280;30314;48.184;11.510;2023-02-23T06:53:47;95612.72;;;5.50;100.00
7662;BME280;30314;48.184;11.510;2023-02-23T06:56:14;95602.75;;;5.52;100.00
7662;BME280;30314;48.184;11.510;2023-02-23T06:58:40;95531.97;;;5.11;100.00
7662;BME280;30314;48.184;11.510;2023-02-23T07:01:08;95621.91;;;5.73;100.00
7662;BME280;30314;48.184;11.510;2023-02-23T07:03:35;95625.63;;;5.83;100.00
7662;BME280;30314;48.184;11.510;2023-02-23T07:06:01;95610.66;;;5.83;100.00
7662;BME280;30314;48.184;11.510;2023-02-23T07:08:31;95617.22;;;5.91;100.00
7662;BME280;30314;48.184;11.510;2023-02-23T07:11:08;95615.66;;;6.00;100.00
7662;BME280;30314;48.184;11.510;2023-02-23T07:13:35;95642.16;;;6.14;100.00
7662;BME280;30314;48.184;11.510;2023-02-23T07:16:02;95625.34;;;6.10;100.00
7662;BME280;30314;48.184;11.510;2023-02-23T07:18:29;95632.16;;;6.11;100.00
7662;BME280;30314;48.184;11.510;2023-02-23T07:20:56;95616.69;;;6.04;100.00
7662;BME280;30314;48.184;11.510;2023-02-23T07:23:22;95624.81;;;6.13;100.00
7662;BME280;30314;48.184;11.510;2023-02-23T07:25:50;95610.94;;;6.13;100.00
7662;BME280;30314;48.184;11.510;2023-02-23T07:28:17;95639.50;;;6.35;100.00
7662;BME280;30314;48.184;11.510;2023-02-23T07:30:44;95641.88;;;6.37;100.00
7662;BME280;30314;48.184;11.510;2023-02-23T07:33:11;95618.53;;;6.25;100.00
7662;BME280;30314;48.184;11.510;2023-02-23T07:35:37;95616.16;;;6.39;100.00
7662;BME280;30314;48.184;11.510;2023-02-23T07:38:04;95608.03;;;6.35;100.00
7662;BME280;30314;48.184;11.510;2023-02-23T07:40:32;95610.13;;;6.33;100.00
7662;BME280;30314;48.184;11.510;2023-02-23T07:42:59;95619.03;;;6.47;100.00
7662;BME280;30314;48.184;11.510;2023-02-23T07:45:26;95603.84;;;6.34;100.00
7662;BME280;30314;48.184;11.510;2023-02-23T07:47:52;95606.22;;;6.36;100.00
7662;BME280;30314;48.184;11.510;2023-02-23T07:50:19;95581.81;;;6.30;100.00
7662;BME280;30314;48.184;11.510;2023-02-23T07:52:45;95633.19;;;6.77;100.00
7662;BME280;30314;48.184;11.510;2023-02-23T07:55:12;95630.31;;;6.74;100.00
7662;BME280;30314;48.184;11.510;2023-02-23T07:57:38;95641.56;;;6.80;100.00
7662;BME280;30314;48.184;11.510;2023-02-23T08:00:05;95614.53;;;6.84;100.00
7662;BME280;30314;48.184;11.510;2023-02-23T08:02:38;95615.56;;;6.83;100.00
7662;BME280;30314;48.184;11.510;2023-02-23T08:05:05;95607.44;;;6.85;100.00
7662;BME280;30314;48.184;11.510;2023-02-23T08:07:32;95625.78;;;7.00;100.00
7662;BME280;30314;48.184;11.510;2023-02-23T08:09:59;95635.72;;;7.09;100.00
7662;BME280;30314;48.184;11.510;2023-02-23T08:12:26;95639.56;;;7.32;100.00
7662;BME280;30314;48.184;11.510;2023-02-23T08:14:52;95651.75;;;7.68;100.00
7662;BME280;30314;48.184;11.510;2023-02-23T08:17:19;95635.34;;;7.41;100.00
7662;BME280;30314;48.184;11.510;2023-02-23T08:19:46;95645.84;;;7.41;100.00
7662;BME280;30314;48.184;11.510;2023-02-23T08:22:12;95597.84;;;7.20;100.00
7662;BME280;30314;48.184;11.510;2023-02-23T08:24:39;95641.31;;;7.52;100.00
7662;BME280;30314;48.184;11.510;2023-02-23T08:27:05;95616.84;;;7.57;100.00
7662;BME280;30314;48.184;11.510;2023-02-23T08:29:32;95620.16;;;7.73;100.00
7662;BME280;30314;48.184;11.510;2023-02-23T08:32:02;95646.69;;;7.77;100.00
7662;BME280;30314;48.184;11.510;2023-02-23T08:34:29;95643.88;;;8.08;100.00
7662;BME280;30314;48.184;11.510;2023-02-23T08:36:56;95609.63;;;7.73;100.00
7662;BME280;30314;48.184;11.510;2023-02-23T08:39:23;95626.94;;;7.84;100.00
7662;BME280;30314;48.184;11.510;2023-02-23T08:41:49;95635.81;;;7.94;100.00
7662;BME280;30314;48.184;11.510;2023-02-23T08:44:16;95632.94;;;7.90;100.00
7662;BME280;30314;48.184;11.510;2023-02-23T08:46:42;95569.25;;;7.64;100.00
7662;BME280;30314;48.184;11.510;2023-02-23T08:49:10;95639.75;;;8.31;100.00
7662;BME280;30314;48.184;11.510;2023-02-23T08:51:37;95626.44;;;8.17;100.00
7662;BME280;30314;48.184;11.510;2023-02-23T08:54:06;95632.63;;;8.31;100.00
7662;BME280;30314;48.184;11.510;2023-02-23T08:56:37;95613.88;;;8.38;100.00
7662;BME280;30314;48.184;11.510;2023-02-23T08:59:04;95618.13;;;8.34;100.00
7662;BME280;30314;48.184;11.510;2023-02-23T09:01:31;95646.69;;;8.51;100.00
7662;BME280;30314;48.184;11.510;2023-02-23T09:03:58;95637.41;;;8.59;100.00
7662;BME280;30314;48.184;11.510;2023-02-23T09:06:26;95641.88;;;8.58;100.00
7662;BME280;30314;48.184;11.510;2023-02-23T09:08:53;95647.53;;;8.71;100.00
7662;BME280;30314;48.184;11.510;2023-02-23T09:11:21;95608.84;;;8.42;100.00
7662;BME280;30314;48.184;11.510;2023-02-23T09:13:48;95643.00;;;8.77;100.00
7662;BME280;30314;48.184;11.510;2023-02-23T09:16:15;95618.88;;;8.69;100.00
7662;BME280;30314;48.184;11.510;2023-02-23T09:18:42;95616.91;;;8.80;100.00
7662;BME280;30314;48.184;11.510;2023-02-23T09:21:15;95634.41;;;8.95;100.00
7662;BME280;30314;48.184;11.510;2023-02-23T09:23:48;95618.16;;;8.88;100.00
7662;BME280;30314;48.184;11.510;2023-02-23T09:26:17;95646.34;;;9.12;100.00
7662;BME280;30314;48.184;11.510;2023-02-23T09:28:45;95644.31;;;9.03;100.00
7662;BME280;30314;48.184;11.510;2023-02-23T09:31:13;95656.97;;;9.01;100.00
7662;BME280;30314;48.184;11.510;2023-02-23T09:33:41;95653.28;;;9.02;100.00
7662;BME280;30314;48.184;11.510;2023-02-23T09:36:10;95595.75;;;8.66;100.00
7662;BME280;30314;48.184;11.510;2023-02-23T09:38:38;95624.72;;;8.91;100.00
7662;BME280;30314;48.184;11.510;2023-02-23T09:41:24;95643.94;;;9.15;100.00
7662;BME280;30314;48.184;11.510;2023-02-23T09:44:25;95642.56;;;9.23;100.00
7662;BME280;30314;48.184;11.510;2023-02-23T09:47:28;95653.59;;;9.25;100.00
7662;BME280;30314;48.184;11.510;2023-02-23T09:49:59;95651.22;;;9.48;100.00
7662;BME280;30314;48.184;11.510;2023-02-23T09:52:37;95637.81;;;9.44;100.00
7662;BME280;30314;48.184;11.510;2023-02-23T09:55:09;95652.63;;;9.40;100.00
7662;BME280;30314;48.184;11.510;2023-02-23T09:57:41;95653.91;;;9.43;100.00
7662;BME280;30314;48.184;11.510;2023-02-23T10:00:22;95657.56;;;9.47;100.00
7662;BME280;30314;48.184;11.510;2023-02-23T10:03:26;95669.97;;;9.66;100.00
7662;BME280;30314;48.184;11.510;2023-02-23T10:06:03;95668.41;;;9.65;100.00
7662;BME280;30314;48.184;11.510;2023-02-23T10:08:42;95655.72;;;9.67;100.00
7662;BME280;30314;48.184;11.510;2023-02-23T10:11:36;95668.41;;;9.65;100.00
7662;BME280;30314;48.184;11.510;2023-02-23T10:14:29;95666.84;;;9.64;100.00
7662;BME280;30314;48.184;11.510;2023-02-23T10:20:05;95661.78;;;9.86;100.00
7662;BME280;30314;48.184;11.510;2023-02-23T10:22:38;95635.25;;;9.78;100.00
7662;BME280;30314;48.184;11.510;2023-02-23T10:25:19;95662.16;;;9.99;100.00
7662;BME280;30314;48.184;11.510;2023-02-23T10:27:51;95647.59;;;9.82;100.00
7662;BME280;30314;48.184;11.510;2023-02-23T10:30:29;95661.00;;;9.86;100.00
7662;BME280;30314;48.184;11.510;2023-02-23T10:33:19;95667.56;;;9.89;100.00
7662;BME280;30314;48.184;11.510;2023-02-23T10:35:47;95663.78;;;9.95;100.00
7662;BME280;30314;48.184;11.510;2023-02-23T10:38:19;95663.72;;;10.00;100.00
7662;BME280;30314;48.184;11.510;2023-02-23T10:40:49;95658.44;;;10.00;100.00
7662;BME280;30314;48.184;11.510;2023-02-23T10:43:16;95638.59;;;9.83;100.00
7662;BME280;30314;48.184;11.510;2023-02-23T10:45:45;95659.16;;;9.86;100.00
7662;BME280;30314;48.184;11.510;2023-02-23T10:48:17;95663.50;;;9.96;100.00
7662;BME280;30314;48.184;11.510;2023-02-23T10:50:46;95655.38;;;9.93;100.00
7662;BME280;30314;48.184;11.510;2023-02-23T10:53:22;95649.38;;;9.87;100.00
7662;BME280;30314;48.184;11.510;2023-02-23T10:56:03;95652.94;;;9.96;100.00
7662;BME280;30314;48.184;11.510;2023-02-23T10:58:44;95625.28;;;9.75;100.00
7662;BME280;30314;48.184;11.510;2023-02-23T11:04:21;95653.00;;;10.10;100.00
7662;BME280;30314;48.184;11.510;2023-02-23T11:06:49;95650.72;;;10.04;100.00
7662;BME280;30314;48.184;11.510;2023-02-23T11:09:24;95657.13;;;10.17;100.00
7662;BME280;30314;48.184;11.510;2023-02-23T11:12:29;95648.16;;;10.18;100.00
7662;BME280;30314;48.184;11.510;2023-02-23T11:15:29;95648.53;;;10.25;100.00
7662;BME280;30314;48.184;11.510;2023-02-23T11:18:21;95647.03;;;10.38;100.00
7662;BME280;30314;48.184;11.510;2023-02-23T11:20:50;95642.53;;;10.38;100.00
7662;BME280;30314;48.184;11.510;2023-02-23T11:23:21;95625.72;;;10.34;100.00
7662;BME280;30314;48.184;11.510;2023-02-23T11:25:51;95640.41;;;10.40;100.00
7662;BME280;30314;48.184;11.510;2023-02-23T11:28:24;95646.06;;;10.34;100.00
7662;BME280;30314;48.184;11.510;2023-02-23T11:30:57;95637.88;;;10.49;100.00
7662;BME280;30314;48.184;11.510;2023-02-23T11:33:30;95627.69;;;10.42;100.00
7662;BME280;30314;48.184;11.510;2023-02-23T11:36:34;95633.19;;;10.60;100.00
7662;BME280;30314;48.184;11.510;2023-02-23T11:41:39;95618.53;;;10.68;100.00
7662;BME280;30314;48.184;11.510;2023-02-23T11:44:05;95621.66;;;10.70;100.00
7662;BME280;30314;48.184;11.510;2023-02-23T11:46:35;95607.97;;;10.68;100.00
7662;BME280;30314;48.184;11.510;2023-02-23T11:49:11;95612.28;;;10.64;100.00
7662;BME280;30314;48.184;11.510;2023-02-23T11:51:47;95611.09;;;10.70;100.00
7662;BME280;30314;48.184;11.510;2023-02-23T11:54:55;95598.34;;;10.44;100.00
7662;BME280;30314;48.184;11.510;2023-02-23T11:57:25;95584.78;;;10.51;100.00
7662;BME280;30314;48.184;11.510;2023-02-23T11:59:55;95599.94;;;10.59;100.00
7662;BME280;30314;48.184;11.510;2023-02-23T12:02:29;95593.69;;;10.55;100.00
7662;BME280;30314;48.184;11.510;2023-02-23T12:05:08;95593.69;;;10.55;100.00
7662;BME280;30314;48.184;11.510;2023-02-23T12:07:38;95601.69;;;10.50;100.00
7662;BME280;30314;48.184;11.510;2023-02-23T12:13:11;95600.16;;;10.77;100.00
7662;BME280;30314;48.184;11.510;2023-02-23T12:15:52;95589.19;;;10.83;100.00
7662;BME280;30314;48.184;11.510;2023-02-23T12:18:41;95595.88;;;10.81;100.00
7662;BME280;30314;48.184;11.510;2023-02-23T12:26:29;95578.34;;;10.99;100.00
7662;BME280;30314;48.184;11.510;2023-02-23T12:29:03;95557.22;;;10.85;100.00
7662;BME280;30314;48.184;11.510;2023-02-23T12:31:45;95572.28;;;10.84;100.00
7662;BME280;30314;48.184;11.510;2023-02-23T12:34:31;95585.19;;;10.86;100.00
7662;BME280;30314;48.184;11.510;2023-02-23T12:37:10;95563.28;;;10.71;100.00
7662;BME280;30314;48.184;11.510;2023-02-23T12:39:44;95566.13;;;10.75;100.00
7662;BME280;30314;48.184;11.510;2023-02-23T12:42:25;95551.75;;;10.67;100.00
7662;BME280;30314;48.184;11.510;2023-02-23T12:44:58;95586.84;;;10.96;100.00
7662;BME280;30314;48.184;11.510;2023-02-23T12:47:48;95571.00;;;10.96;100.00
7662;BME280;30314;48.184;11.510;2023-02-23T12:50:30;95566.59;;;11.05;100.00
7662;BME280;30314;48.184;11.510;2023-02-23T12:53:00;95584.50;;;11.08;100.00
7662;BME280;30314;48.184;11.510;2023-02-23T12:55:41;95572.28;;;10.98;100.00
7662;BME280;30314;48.184;11.510;2023-02-23T12:58:25;95582.56;;;11.14;100.00
7662;BME280;30314;48.184;11.510;2023-02-23T13:01:11;95579.22;;;11.08;100.00
7662;BME280;30314;48.184;11.510;2023-02-23T13:03:57;95573.28;;;11.17;100.00
7662;BME280;30314;48.184;11.510;2023-02-23T13:06:57;95566.00;;;11.08;100.00
7662;BME280;30314;48.184;11.510;2023-02-23T13:17:36;95545.28;;;10.88;100.00
7662;BME280;30314;48.184;11.510;2023-02-23T13:20:14;95564.06;;;11.00;100.00
7662;BME280;30314;48.184;11.510;2023-02-23T13:25:23;95552.97;;;10.98;100.00
7662;BME280;30314;48.184;11.510;2023-02-23T13:27:58;95556.72;;;11.11;100.00
7662;BME280;30314;48.184;11.510;2023-02-23T13:30:28;95557.00;;;11.23;100.00
7662;BME280;30314;48.184;11.510;2023-02-23T13:33:15;95555.53;;;11.17;100.00
7662;BME280;30314;48.184;11.510;2023-02-23T13:35:43;95532.16;;;10.96;100.00
7662;BME280;30314;48.184;11.510;2023-02-23T13:38:18;95534.59;;;11.21;100.00
7662;BME280;30314;48.184;11.510;2023-02-23T13:40:52;95551.81;;;11.18;100.00
7662;BME280;30314;48.184;11.510;2023-02-23T13:43:28;95558.88;;;11.09;100.00
7662;BME280;30314;48.184;11.510;2023-02-23T13:48:59;95548.59;;;11.21;100.00
7662;BME280;30314;48.184;11.510;2023-02-23T13:51:48;95539.28;;;11.10;100.00
7662;BME280;30314;48.184;11.510;2023-02-23T13:56:53;95547.53;;;10.94;100.00
7662;BME280;30314;48.184;11.510;2023-02-23T13:59:26;95540.34;;;11.23;100.00
7662;BME280;30314;48.184;11.510;2023-02-23T14:02:01;95539.84;;;11.35;100.00
7662;BME280;30314;48.184;11.510;2023-02-23T14:04:35;95544.16;;;11.31;99.24
7662;BME280;30314;48.184;11.510;2023-02-23T14:07:27;95535.97;;;11.18;100.00
7662;BME280;30314;48.184;11.510;2023-02-23T14:10:23;95543.69;;;11.28;100.00
7662;BME280;30314;48.184;11.510;2023-02-23T14:21:02;95538.25;;;11.11;100.00
7662;BME280;30314;48.184;11.510;2023-02-23T14:29:25;95536.97;;;10.94;100.00
7662;BME280;30314;48.184;11.510;2023-02-23T14:34:41;95529.88;;;11.04;100.00
7662;BME280;30314;48.184;11.510;2023-02-23T14:37:24;95526.88;;;10.82;100.00
7662;BME280;30314;48.184;11.510;2023-02-23T14:39:54;95534.53;;;10.84;100.00
7662;BME280;30314;48.184;11.510;2023-02-23T14:42:27;95539.13;;;10.78;100.00
7662;BME280;30314;48.184;11.510;2023-02-23T14:44:56;95526.91;;;10.68;100.00
7662;BME280;30314;48.184;11.510;2023-02-23T14:47:27;95530.13;;;10.79;100.00
7662;BME280;30314;48.184;11.510;2023-02-23T14:50:00;95530.41;;;10.78;100.00